sensor_id;sensor_type;location;lat;lon;timestamp;temperature;humidity
21246;DHT22;10781;50.928;4.440;2022-08-21T00:01:42;20.00;99.90
21246;DHT22;10781;50.928;4.440;2022-08-21T00:04:09;19.90;99.90
21246;DHT22;10781;50.928;4.440;2022-08-21T00:06:35;19.70;99.90
21246;DHT22;10781;50.928;4.440;2022-08-21T00:09:05;19.80;99.90
21246;DHT22;10781;50.928;4.440;2022-08-21T00:11:31;19.90;99.90
21246;DHT22;10781;50.928;4.440;2022-08-21T00:13:57;20.00;99.90
21246;DHT22;10781;50.928;4.440;2022-08-21T00:16:22;19.90;99.90
21246;DHT22;10781;50.928;4.440;2022-08-21T00:18:49;19.90;99.90
21246;DHT22;10781;50.928;4.440;2022-08-21T00:21:15;19.70;99.90
21246;DHT22;10781;50.928;4.440;2022-08-21T00:23:41;19.70;99.90
21246;DHT22;10781;50.928;4.440;2022-08-21T00:26:07;19.70;99.90
21246;DHT22;10781;50.928;4.440;2022-08-21T00:28:33;19.50;99.90
21246;DHT22;10781;50.928;4.440;2022-08-21T00:30:59;19.30;99.90
21246;DHT22;10781;50.928;4.440;2022-08-21T00:33:28;19.40;99.90
21246;DHT22;10781;50.928;4.440;2022-08-21T00:35:54;19.60;99.90
21246;DHT22;10781;50.928;4.440;2022-08-21T00:38:19;19.70;99.90
21246;DHT22;10781;50.928;4.440;2022-08-21T00:40:51;19.90;99.90
21246;DHT22;10781;50.928;4.440;2022-08-21T00:43:23;19.90;99.90
21246;DHT22;10781;50.928;4.440;2022-08-21T00:45:49;19.90;99.90
21246;DHT22;10781;50.928;4.440;2022-08-21T00:48:15;19.90;99.90
21246;DHT22;10781;50.928;4.440;2022-08-21T00:50:54;19.70;99.90
21246;DHT22;10781;50.928;4.440;2022-08-21T00:53:21;19.80;99.90
21246;DHT22;10781;50.928;4.440;2022-08-21T00:55:47;19.80;99.90
21246;DHT22;10781;50.928;4.440;2022-08-21T00:58:14;19.80;99.90
21246;DHT22;10781;50.928;4.440;2022-08-21T01:00:42;19.80;99.90
21246;DHT22;10781;50.928;4.440;2022-08-21T01:03:17;19.80;99.90
21246;DHT22;10781;50.928;4.440;2022-08-21T01:05:44;19.80;99.90
21246;DHT22;10781;50.928;4.440;2022-08-21T01:08:11;19.60;99.90
21246;DHT22;10781;50.928;4.440;2022-08-21T01:10:38;19.20;99.90
21246;DHT22;10781;50.928;4.440;2022-08-21T01:13:06;19.40;99.90
21246;DHT22;10781;50.928;4.440;2022-08-21T01:15:36;19.60;99.90
21246;DHT22;10781;50.928;4.440;2022-08-21T01:18:05;19.70;99.90
21246;DHT22;10781;50.928;4.440;2022-08-21T01:20:33;19.70;99.90
21246;DHT22;10781;50.928;4.440;2022-08-21T01:23:03;19.70;99.90
21246;DHT22;10781;50.928;4.440;2022-08-21T01:25:29;19.80;99.90
21246;DHT22;10781;50.928;4.440;2022-08-21T01:27:55;19.80;99.90
21246;DHT22;10781;50.928;4.440;2022-08-21T01:30:25;19.70;99.90
21246;DHT22;10781;50.928;4.440;2022-08-21T01:32:51;19.70;99.90
21246;DHT22;10781;50.928;4.440;2022-08-21T01:35:18;19.70;99.90
21246;DHT22;10781;50.928;4.440;2022-08-21T01:37:45;19.70;99.90
21246;DHT22;10781;50.928;4.440;2022-08-21T01:40:13;19.70;99.90
21246;DHT22;10781;50.928;4.440;2022-08-21T01:42:42;19.60;99.90
21246;DHT22;10781;50.928;4.440;2022-08-21T01:45:09;19.60;99.90
21246;DHT22;10781;50.928;4.440;2022-08-21T01:47:35;19.60;99.90
21246;DHT22;10781;50.928;4.440;2022-08-21T01:50:04;19.50;99.90
21246;DHT22;10781;50.928;4.440;2022-08-21T01:52:30;19.30;99.90
21246;DHT22;10781;50.928;4.440;2022-08-21T01:54:56;19.40;99.90
21246;DHT22;10781;50.928;4.440;2022-08-21T01:57:23;19.40;99.90
21246;DHT22;10781;50.928;4.440;2022-08-21T01:59:48;19.50;99.90
21246;DHT22;10781;50.928;4.440;2022-08-21T02:02:14;19.10;99.90
21246;DHT22;10781;50.928;4.440;2022-08-21T02:04:40;19.00;99.90
21246;DHT22;10781;50.928;4.440;2022-08-21T02:07:05;19.00;99.90
21246;DHT22;10781;50.928;4.440;2022-08-21T02:09:32;19.00;99.90
21246;DHT22;10781;50.928;4.440;2022-08-21T02:11:58;19.10;99.90
21246;DHT22;10781;50.928;4.440;2022-08-21T02:14:24;19.10;99.90
21246;DHT22;10781;50.928;4.440;2022-08-21T02:16:49;19.10;99.90
21246;DHT22;10781;50.928;4.440;2022-08-21T02:19:16;19.10;99.90
21246;DHT22;10781;50.928;4.440;2022-08-21T02:21:42;19.10;99.90
21246;DHT22;10781;50.928;4.440;2022-08-21T02:24:08;19.00;99.90
21246;DHT22;10781;50.928;4.440;2022-08-21T02:26:34;19.10;99.90
21246;DHT22;10781;50.928;4.440;2022-08-21T02:29:00;19.10;99.90
21246;DHT22;10781;50.928;4.440;2022-08-21T02:31:26;19.10;99.90
21246;DHT22;10781;50.928;4.440;2022-08-21T02:33:52;19.10;99.90
21246;DHT22;10781;50.928;4.440;2022-08-21T02:36:18;19.20;99.90
21246;DHT22;10781;50.928;4.440;2022-08-21T02:38:44;19.20;99.90
21246;DHT22;10781;50.928;4.440;2022-08-21T02:41:17;19.10;99.90
21246;DHT22;10781;50.928;4.440;2022-08-21T02:43:43;19.10;99.90
21246;DHT22;10781;50.928;4.440;2022-08-21T02:46:11;19.00;99.90
21246;DHT22;10781;50.928;4.440;2022-08-21T02:48:37;18.90;99.90
21246;DHT22;10781;50.928;4.440;2022-08-21T02:51:09;18.90;99.90
21246;DHT22;10781;50.928;4.440;2022-08-21T02:53:36;18.80;99.90
21246;DHT22;10781;50.928;4.440;2022-08-21T02:56:05;18.90;99.90
21246;DHT22;10781;50.928;4.440;2022-08-21T02:58:34;18.90;99.90
21246;DHT22;10781;50.928;4.440;2022-08-21T03:01:00;18.80;99.90
21246;DHT22;10781;50.928;4.440;2022-08-21T03:03:27;18.70;99.90
21246;DHT22;10781;50.928;4.440;2022-08-21T03:05:53;18.60;99.90
21246;DHT22;10781;50.928;4.440;2022-08-21T03:08:20;18.60;99.90
21246;DHT22;10781;50.928;4.440;2022-08-21T03:10:49;18.60;99.90
21246;DHT22;10781;50.928;4.440;2022-08-21T03:13:16;18.40;99.90
21246;DHT22;10781;50.928;4.440;2022-08-21T03:15:43;18.40;99.90
21246;DHT22;10781;50.928;4.440;2022-08-21T03:18:10;18.40;99.90
21246;DHT22;10781;50.928;4.440;2022-08-21T03:20:37;18.40;99.90
21246;DHT22;10781;50.928;4.440;2022-08-21T03:23:04;18.50;99.90
21246;DHT22;10781;50.928;4.440;2022-08-21T03:25:32;18.40;99.90
21246;DHT22;10781;50.928;4.440;2022-08-21T03:27:59;18.30;99.90
21246;DHT22;10781;50.928;4.440;2022-08-21T03:30:24;18.40;99.90
21246;DHT22;10781;50.928;4.440;2022-08-21T03:32:50;18.40;99.90
21246;DHT22;10781;50.928;4.440;2022-08-21T03:35:16;18.50;99.90
21246;DHT22;10781;50.928;4.440;2022-08-21T03:37:42;18.60;99.90
21246;DHT22;10781;50.928;4.440;2022-08-21T03:40:09;18.80;99.90
21246;DHT22;10781;50.928;4.440;2022-08-21T03:42:35;18.80;99.90
21246;DHT22;10781;50.928;4.440;2022-08-21T03:45:01;18.60;99.90
21246;DHT22;10781;50.928;4.440;2022-08-21T03:47:27;18.60;99.90
21246;DHT22;10781;50.928;4.440;2022-08-21T03:49:52;18.60;99.90
21246;DHT22;10781;50.928;4.440;2022-08-21T03:52:19;18.40;99.90
21246;DHT22;10781;50.928;4.440;2022-08-21T03:54:45;18.40;99.90
21246;DHT22;10781;50.928;4.440;2022-08-21T03:57:11;18.40;99.90
21246;DHT22;10781;50.928;4.440;2022-08-21T03:59:37;18.50;99.90
21246;DHT22;10781;50.928;4.440;2022-08-21T04:02:05;18.40;99.90
21246;DHT22;10781;50.928;4.440;2022-08-21T04:04:32;18.40;99.90
21246;DHT22;10781;50.928;4.440;2022-08-21T04:06:58;18.30;99.90
21246;DHT22;10781;50.928;4.440;2022-08-21T04:09:25;18.30;99.90
21246;DHT22;10781;50.928;4.440;2022-08-21T04:11:51;18.40;99.90
21246;DHT22;10781;50.928;4.440;2022-08-21T04:14:17;18.30;99.90
21246;DHT22;10781;50.928;4.440;2022-08-21T04:16:44;18.40;99.90
21246;DHT22;10781;50.928;4.440;2022-08-21T04:19:11;18.40;99.90
21246;DHT22;10781;50.928;4.440;2022-08-21T04:21:37;18.40;99.90
21246;DHT22;10781;50.928;4.440;2022-08-21T04:24:04;18.30;99.90
21246;DHT22;10781;50.928;4.440;2022-08-21T04:26:30;18.40;99.90
21246;DHT22;10781;50.928;4.440;2022-08-21T04:28:57;18.40;99.90
21246;DHT22;10781;50.928;4.440;2022-08-21T04:31:23;18.30;99.90
21246;DHT22;10781;50.928;4.440;2022-08-21T04:33:49;18.20;99.90
21246;DHT22;10781;50.928;4.440;2022-08-21T04:36:16;18.30;99.90
21246;DHT22;10781;50.928;4.440;2022-08-21T04:38:41;18.30;99.90
21246;DHT22;10781;50.928;4.440;2022-08-21T04:41:07;18.30;99.90
21246;DHT22;10781;50.928;4.440;2022-08-21T04:43:33;18.20;99.90
21246;DHT22;10781;50.928;4.440;2022-08-21T04:45:59;18.00;99.90
21246;DHT22;10781;50.928;4.440;2022-08-21T04:48:26;18.00;99.90
21246;DHT22;10781;50.928;4.440;2022-08-21T04:50:54;18.20;99.90
21246;DHT22;10781;50.928;4.440;2022-08-21T04:53:38;18.10;99.90
21246;DHT22;10781;50.928;4.440;2022-08-21T04:56:09;18.20;99.90
21246;DHT22;10781;50.928;4.440;2022-08-21T04:58:37;18.30;99.90
21246;DHT22;10781;50.928;4.440;2022-08-21T05:01:06;18.30;99.90
21246;DHT22;10781;50.928;4.440;2022-08-21T05:03:34;18.30;99.90
21246;DHT22;10781;50.928;4.440;2022-08-21T05:06:05;18.20;99.90
21246;DHT22;10781;50.928;4.440;2022-08-21T05:08:33;18.10;99.90
21246;DHT22;10781;50.928;4.440;2022-08-21T05:10:59;17.90;99.90
21246;DHT22;10781;50.928;4.440;2022-08-21T05:13:24;17.90;99.90
21246;DHT22;10781;50.928;4.440;2022-08-21T05:15:50;18.00;99.90
21246;DHT22;10781;50.928;4.440;2022-08-21T05:18:16;18.00;99.90
21246;DHT22;10781;50.928;4.440;2022-08-21T05:20:42;18.20;99.90
21246;DHT22;10781;50.928;4.440;2022-08-21T05:23:09;18.00;99.90
21246;DHT22;10781;50.928;4.440;2022-08-21T05:25:35;18.00;99.90
21246;DHT22;10781;50.928;4.440;2022-08-21T05:28:00;18.00;99.90
21246;DHT22;10781;50.928;4.440;2022-08-21T05:30:26;18.10;99.90
21246;DHT22;10781;50.928;4.440;2022-08-21T05:32:57;18.10;99.90
21246;DHT22;10781;50.928;4.440;2022-08-21T05:35:23;18.10;99.90
21246;DHT22;10781;50.928;4.440;2022-08-21T05:37:49;18.20;99.90
21246;DHT22;10781;50.928;4.440;2022-08-21T05:40:15;18.30;99.90
21246;DHT22;10781;50.928;4.440;2022-08-21T05:42:40;18.40;99.90
21246;DHT22;10781;50.928;4.440;2022-08-21T05:45:06;18.30;99.90
21246;DHT22;10781;50.928;4.440;2022-08-21T05:47:32;18.20;99.90
21246;DHT22;10781;50.928;4.440;2022-08-21T05:49:58;18.30;99.90
21246;DHT22;10781;50.928;4.440;2022-08-21T05:52:23;18.30;99.90
21246;DHT22;10781;50.928;4.440;2022-08-21T05:54:49;18.50;99.90
21246;DHT22;10781;50.928;4.440;2022-08-21T05:57:15;18.50;99.90
21246;DHT22;10781;50.928;4.440;2022-08-21T05:59:40;18.50;99.90
21246;DHT22;10781;50.928;4.440;2022-08-21T06:02:06;18.50;99.90
21246;DHT22;10781;50.928;4.440;2022-08-21T06:04:37;18.50;99.90
21246;DHT22;10781;50.928;4.440;2022-08-21T06:07:03;18.70;99.90
21246;DHT22;10781;50.928;4.440;2022-08-21T06:09:29;18.70;99.90
21246;DHT22;10781;50.928;4.440;2022-08-21T06:11:54;18.80;99.90
21246;DHT22;10781;50.928;4.440;2022-08-21T06:14:20;18.60;99.90
21246;DHT22;10781;50.928;4.440;2022-08-21T06:16:46;18.70;99.90
21246;DHT22;10781;50.928;4.440;2022-08-21T06:19:12;18.70;99.90
21246;DHT22;10781;50.928;4.440;2022-08-21T06:21:37;18.90;99.90
21246;DHT22;10781;50.928;4.440;2022-08-21T06:24:04;19.00;99.90
21246;DHT22;10781;50.928;4.440;2022-08-21T06:26:30;19.10;99.90
21246;DHT22;10781;50.928;4.440;2022-08-21T06:28:57;19.10;99.90
21246;DHT22;10781;50.928;4.440;2022-08-21T06:31:24;19.30;99.90
21246;DHT22;10781;50.928;4.440;2022-08-21T06:33:50;19.50;99.90
21246;DHT22;10781;50.928;4.440;2022-08-21T06:36:16;19.60;99.90
21246;DHT22;10781;50.928;4.440;2022-08-21T06:38:42;19.60;99.90
21246;DHT22;10781;50.928;4.440;2022-08-21T06:41:08;19.60;99.90
21246;DHT22;10781;50.928;4.440;2022-08-21T06:43:34;19.80;99.90
21246;DHT22;10781;50.928;4.440;2022-08-21T06:46:00;20.80;99.90
21246;DHT22;10781;50.928;4.440;2022-08-21T06:48:25;22.50;99.90
21246;DHT22;10781;50.928;4.440;2022-08-21T06:50:51;23.70;99.90
21246;DHT22;10781;50.928;4.440;2022-08-21T06:53:19;24.40;99.90
21246;DHT22;10781;50.928;4.440;2022-08-21T06:55:46;24.60;99.90
21246;DHT22;10781;50.928;4.440;2022-08-21T06:58:12;25.10;99.90
21246;DHT22;10781;50.928;4.440;2022-08-21T07:00:41;26.10;99.90
21246;DHT22;10781;50.928;4.440;2022-08-21T07:03:07;26.70;99.90
21246;DHT22;10781;50.928;4.440;2022-08-21T07:05:33;27.30;99.90
21246;DHT22;10781;50.928;4.440;2022-08-21T07:07:59;26.80;99.90
21246;DHT22;10781;50.928;4.440;2022-08-21T07:10:26;27.80;99.90
21246;DHT22;10781;50.928;4.440;2022-08-21T07:12:52;28.10;99.90
21246;DHT22;10781;50.928;4.440;2022-08-21T07:15:19;28.30;99.90
21246;DHT22;10781;50.928;4.440;2022-08-21T07:17:44;28.90;99.90
21246;DHT22;10781;50.928;4.440;2022-08-21T07:20:10;28.90;99.90
21246;DHT22;10781;50.928;4.440;2022-08-21T07:22:37;29.50;99.60
21246;DHT22;10781;50.928;4.440;2022-08-21T07:25:03;30.60;98.40
21246;DHT22;10781;50.928;4.440;2022-08-21T07:27:29;31.00;95.70
21246;DHT22;10781;50.928;4.440;2022-08-21T07:29:56;31.00;93.70
21246;DHT22;10781;50.928;4.440;2022-08-21T07:32:21;30.20;94.50
21246;DHT22;10781;50.928;4.440;2022-08-21T07:34:47;30.20;94.50
21246;DHT22;10781;50.928;4.440;2022-08-21T07:37:12;30.50;93.70
21246;DHT22;10781;50.928;4.440;2022-08-21T07:39:38;30.10;94.10
21246;DHT22;10781;50.928;4.440;2022-08-21T07:42:04;30.60;93.10
21246;DHT22;10781;50.928;4.440;2022-08-21T07:44:30;30.50;93.10
21246;DHT22;10781;50.928;4.440;2022-08-21T07:46:56;30.80;92.00
21246;DHT22;10781;50.928;4.440;2022-08-21T07:49:22;31.60;91.20
21246;DHT22;10781;50.928;4.440;2022-08-21T07:51:48;32.40;89.30
21246;DHT22;10781;50.928;4.440;2022-08-21T07:54:14;32.70;88.90
21246;DHT22;10781;50.928;4.440;2022-08-21T07:56:39;31.90;86.80
21246;DHT22;10781;50.928;4.440;2022-08-21T07:59:05;31.40;87.20
21246;DHT22;10781;50.928;4.440;2022-08-21T08:01:30;31.60;88.10
21246;DHT22;10781;50.928;4.440;2022-08-21T08:03:56;31.50;87.60
21246;DHT22;10781;50.928;4.440;2022-08-21T08:06:22;32.20;85.00
21246;DHT22;10781;50.928;4.440;2022-08-21T08:08:48;31.50;85.40
21246;DHT22;10781;50.928;4.440;2022-08-21T08:11:14;31.30;84.80
21246;DHT22;10781;50.928;4.440;2022-08-21T08:13:45;30.40;86.20
21246;DHT22;10781;50.928;4.440;2022-08-21T08:16:11;29.80;87.50
21246;DHT22;10781;50.928;4.440;2022-08-21T08:18:37;29.40;90.10
21246;DHT22;10781;50.928;4.440;2022-08-21T08:21:04;28.80;91.00
21246;DHT22;10781;50.928;4.440;2022-08-21T08:23:30;28.50;91.10
21246;DHT22;10781;50.928;4.440;2022-08-21T08:25:57;28.40;91.40
21246;DHT22;10781;50.928;4.440;2022-08-21T08:28:23;28.30;91.40
21246;DHT22;10781;50.928;4.440;2022-08-21T08:30:50;28.00;91.90
21246;DHT22;10781;50.928;4.440;2022-08-21T08:33:16;28.20;91.90
21246;DHT22;10781;50.928;4.440;2022-08-21T08:35:45;28.70;91.60
21246;DHT22;10781;50.928;4.440;2022-08-21T08:38:11;29.10;91.60
21246;DHT22;10781;50.928;4.440;2022-08-21T08:40:46;30.30;90.20
21246;DHT22;10781;50.928;4.440;2022-08-21T08:43:14;30.60;88.70
21246;DHT22;10781;50.928;4.440;2022-08-21T08:45:43;31.60;87.00
21246;DHT22;10781;50.928;4.440;2022-08-21T08:48:13;32.20;84.20
21246;DHT22;10781;50.928;4.440;2022-08-21T08:53:55;34.60;80.40
21246;DHT22;10781;50.928;4.440;2022-08-21T08:55:53;35.40;75.10
21246;DHT22;10781;50.928;4.440;2022-08-21T08:58:26;35.30;73.10
21246;DHT22;10781;50.928;4.440;2022-08-21T09:00:54;35.00;71.00
21246;DHT22;10781;50.928;4.440;2022-08-21T09:03:25;34.90;69.70
21246;DHT22;10781;50.928;4.440;2022-08-21T09:08:46;34.90;68.40
21246;DHT22;10781;50.928;4.440;2022-08-21T09:11:26;35.20;67.50
21246;DHT22;10781;50.928;4.440;2022-08-21T09:16:56;35.60;65.70
21246;DHT22;10781;50.928;4.440;2022-08-21T09:19:46;35.10;65.00
21246;DHT22;10781;50.928;4.440;2022-08-21T09:25:08;35.20;64.80
21246;DHT22;10781;50.928;4.440;2022-08-21T09:27:34;35.40;64.90
21246;DHT22;10781;50.928;4.440;2022-08-21T09:30:03;37.40;64.10
21246;DHT22;10781;50.928;4.440;2022-08-21T09:32:31;38.20;59.70
21246;DHT22;10781;50.928;4.440;2022-08-21T09:35:16;38.20;57.20
21246;DHT22;10781;50.928;4.440;2022-08-21T09:37:53;38.20;56.30
21246;DHT22;10781;50.928;4.440;2022-08-21T09:40:27;38.30;55.20
21246;DHT22;10781;50.928;4.440;2022-08-21T09:45:40;38.40;54.30
21246;DHT22;10781;50.928;4.440;2022-08-21T09:50:39;36.40;56.40
21246;DHT22;10781;50.928;4.440;2022-08-21T09:53:19;34.90;58.00
21246;DHT22;10781;50.928;4.440;2022-08-21T09:55:55;33.80;59.50
21246;DHT22;10781;50.928;4.440;2022-08-21T09:58:42;32.30;61.60
21246;DHT22;10781;50.928;4.440;2022-08-21T10:01:18;30.90;64.60
21246;DHT22;10781;50.928;4.440;2022-08-21T10:03:45;30.50;66.50
21246;DHT22;10781;50.928;4.440;2022-08-21T10:06:25;30.20;67.60
21246;DHT22;10781;50.928;4.440;2022-08-21T10:09:23;29.40;69.10
21246;DHT22;10781;50.928;4.440;2022-08-21T10:14:50;29.00;71.40
21246;DHT22;10781;50.928;4.440;2022-08-21T10:17:43;29.60;72.00
21246;DHT22;10781;50.928;4.440;2022-08-21T10:20:45;31.40;69.80
21246;DHT22;10781;50.928;4.440;2022-08-21T10:28:56;34.00;61.90
21246;DHT22;10781;50.928;4.440;2022-08-21T10:31:54;35.00;61.60
21246;DHT22;10781;50.928;4.440;2022-08-21T10:34:39;36.80;57.80
21246;DHT22;10781;50.928;4.440;2022-08-21T10:40:37;37.80;56.80
21246;DHT22;10781;50.928;4.440;2022-08-21T10:46:36;35.20;58.20
21246;DHT22;10781;50.928;4.440;2022-08-21T10:49:21;34.70;59.20
21246;DHT22;10781;50.928;4.440;2022-08-21T10:52:15;34.30;61.40
21246;DHT22;10781;50.928;4.440;2022-08-21T10:54:55;35.00;58.80
21246;DHT22;10781;50.928;4.440;2022-08-21T10:57:31;34.80;59.60
21246;DHT22;10781;50.928;4.440;2022-08-21T11:00:15;35.50;59.00
21246;DHT22;10781;50.928;4.440;2022-08-21T11:02:57;36.20;57.10
21246;DHT22;10781;50.928;4.440;2022-08-21T11:05:38;34.60;58.20
21246;DHT22;10781;50.928;4.440;2022-08-21T11:08:09;34.80;59.30
21246;DHT22;10781;50.928;4.440;2022-08-21T11:13:38;37.10;56.50
21246;DHT22;10781;50.928;4.440;2022-08-21T11:18:49;37.90;53.30
21246;DHT22;10781;50.928;4.440;2022-08-21T11:21:32;37.40;54.70
21246;DHT22;10781;50.928;4.440;2022-08-21T11:24:54;36.80;54.40
21246;DHT22;10781;50.928;4.440;2022-08-21T11:27:17;35.80;55.70
21246;DHT22;10781;50.928;4.440;2022-08-21T11:29:49;34.00;57.40
21246;DHT22;10781;50.928;4.440;2022-08-21T11:32:52;34.70;57.70
21246;DHT22;10781;50.928;4.440;2022-08-21T11:43:01;40.50;50.50
21246;DHT22;10781;50.928;4.440;2022-08-21T11:48:43;40.70;47.90
21246;DHT22;10781;50.928;4.440;2022-08-21T11:51:27;39.40;47.80
21246;DHT22;10781;50.928;4.440;2022-08-21T11:56:35;38.60;49.40
21246;DHT22;10781;50.928;4.440;2022-08-21T11:59:17;37.40;50.20
21246;DHT22;10781;50.928;4.440;2022-08-21T12:01:48;36.20;51.20
21246;DHT22;10781;50.928;4.440;2022-08-21T12:04:41;35.70;52.50
21246;DHT22;10781;50.928;4.440;2022-08-21T12:10:00;36.20;52.80
21246;DHT22;10781;50.928;4.440;2022-08-21T12:12:32;36.90;52.10
21246;DHT22;10781;50.928;4.440;2022-08-21T12:23:59;40.60;46.60
21246;DHT22;10781;50.928;4.440;2022-08-21T12:26:47;41.60;45.50
21246;DHT22;10781;50.928;4.440;2022-08-21T12:29:21;40.40;44.00
21246;DHT22;10781;50.928;4.440;2022-08-21T12:31:54;37.90;46.00
21246;DHT22;10781;50.928;4.440;2022-08-21T12:34:23;36.50;49.10
21246;DHT22;10781;50.928;4.440;2022-08-21T12:36:59;36.80;49.50
21246;DHT22;10781;50.928;4.440;2022-08-21T12:39:27;37.70;49.00
21246;DHT22;10781;50.928;4.440;2022-08-21T12:42:23;37.60;47.60
21246;DHT22;10781;50.928;4.440;2022-08-21T12:45:03;37.40;47.60
21246;DHT22;10781;50.928;4.440;2022-08-21T12:47:33;37.20;47.20
21246;DHT22;10781;50.928;4.440;2022-08-21T12:50:04;36.60;46.80
21246;DHT22;10781;50.928;4.440;2022-08-21T12:52:51;35.10;49.30
21246;DHT22;10781;50.928;4.440;2022-08-21T12:55:29;36.20;49.90
21246;DHT22;10781;50.928;4.440;2022-08-21T12:57:55;37.60;47.70
21246;DHT22;10781;50.928;4.440;2022-08-21T13:00:23;37.70;47.20
21246;DHT22;10781;50.928;4.440;2022-08-21T13:02:50;36.50;47.20
21246;DHT22;10781;50.928;4.440;2022-08-21T13:05:28;35.70;49.40
21246;DHT22;10781;50.928;4.440;2022-08-21T13:07:55;34.80;51.00
21246;DHT22;10781;50.928;4.440;2022-08-21T13:10:29;33.80;52.30
21246;DHT22;10781;50.928;4.440;2022-08-21T13:12:59;33.20;52.70
21246;DHT22;10781;50.928;4.440;2022-08-21T13:15:29;32.60;53.00
21246;DHT22;10781;50.928;4.440;2022-08-21T13:17:55;32.20;53.60
21246;DHT22;10781;50.928;4.440;2022-08-21T13:20:30;31.70;55.90
21246;DHT22;10781;50.928;4.440;2022-08-21T13:22:56;31.00;56.50
21246;DHT22;10781;50.928;4.440;2022-08-21T13:25:27;30.90;57.30
21246;DHT22;10781;50.928;4.440;2022-08-21T13:28:08;31.20;57.00
21246;DHT22;10781;50.928;4.440;2022-08-21T13:30:39;31.50;56.70
21246;DHT22;10781;50.928;4.440;2022-08-21T13:33:07;31.60;56.30
21246;DHT22;10781;50.928;4.440;2022-08-21T13:38:28;31.80;56.30
21246;DHT22;10781;50.928;4.440;2022-08-21T13:40:57;31.90;56.10
21246;DHT22;10781;50.928;4.440;2022-08-21T13:43:28;32.00;56.00
21246;DHT22;10781;50.928;4.440;2022-08-21T13:45:56;31.80;54.90
21246;DHT22;10781;50.928;4.440;2022-08-21T13:48:24;32.20;55.70
21246;DHT22;10781;50.928;4.440;2022-08-21T13:50:51;32.80;55.30
21246;DHT22;10781;50.928;4.440;2022-08-21T13:53:48;33.80;53.70
21246;DHT22;10781;50.928;4.440;2022-08-21T13:56:33;34.20;52.20
21246;DHT22;10781;50.928;4.440;2022-08-21T13:59:06;35.10;52.40
21246;DHT22;10781;50.928;4.440;2022-08-21T14:02:14;35.00;51.10
21246;DHT22;10781;50.928;4.440;2022-08-21T14:07:24;34.60;50.80
21246;DHT22;10781;50.928;4.440;2022-08-21T14:09:50;34.90;50.80
21246;DHT22;10781;50.928;4.440;2022-08-21T14:12:33;35.40;50.80
21246;DHT22;10781;50.928;4.440;2022-08-21T14:15:04;36.00;49.70
21246;DHT22;10781;50.928;4.440;2022-08-21T14:17:36;36.50;48.00
21246;DHT22;10781;50.928;4.440;2022-08-21T14:20:04;36.80;48.20
21246;DHT22;10781;50.928;4.440;2022-08-21T14:22:40;36.40;48.20
21246;DHT22;10781;50.928;4.440;2022-08-21T14:25:36;35.60;48.90
21246;DHT22;10781;50.928;4.440;2022-08-21T14:30:31;34.40;48.90
21246;DHT22;10781;50.928;4.440;2022-08-21T14:32:57;33.50;50.20
21246;DHT22;10781;50.928;4.440;2022-08-21T14:35:23;32.80;51.30
21246;DHT22;10781;50.928;4.440;2022-08-21T14:37:50;32.00;52.50
21246;DHT22;10781;50.928;4.440;2022-08-21T14:40:17;31.60;53.30
21246;DHT22;10781;50.928;4.440;2022-08-21T14:42:43;31.20;54.40
21246;DHT22;10781;50.928;4.440;2022-08-21T14:45:23;30.90;54.80
21246;DHT22;10781;50.928;4.440;2022-08-21T14:47:51;30.90;55.30
21246;DHT22;10781;50.928;4.440;2022-08-21T14:50:17;30.90;55.60
21246;DHT22;10781;50.928;4.440;2022-08-21T14:52:43;30.80;56.10
21246;DHT22;10781;50.928;4.440;2022-08-21T14:55:11;30.70;55.20
21246;DHT22;10781;50.928;4.440;2022-08-21T14:57:40;30.60;55.70
21246;DHT22;10781;50.928;4.440;2022-08-21T15:00:11;30.40;55.90
21246;DHT22;10781;50.928;4.440;2022-08-21T15:02:36;30.30;56.60
21246;DHT22;10781;50.928;4.440;2022-08-21T15:05:03;30.30;56.90
21246;DHT22;10781;50.928;4.440;2022-08-21T15:07:29;30.50;56.60
21246;DHT22;10781;50.928;4.440;2022-08-21T15:09:54;30.40;56.40
21246;DHT22;10781;50.928;4.440;2022-08-21T15:12:20;30.30;56.80
21246;DHT22;10781;50.928;4.440;2022-08-21T15:14:45;30.00;57.70
21246;DHT22;10781;50.928;4.440;2022-08-21T15:17:11;29.80;59.70
21246;DHT22;10781;50.928;4.440;2022-08-21T15:19:37;29.80;58.20
21246;DHT22;10781;50.928;4.440;2022-08-21T15:22:03;29.90;58.20
21246;DHT22;10781;50.928;4.440;2022-08-21T15:24:29;30.00;57.60
21246;DHT22;10781;50.928;4.440;2022-08-21T15:26:56;29.80;56.80
21246;DHT22;10781;50.928;4.440;2022-08-21T15:29:24;29.50;57.20
21246;DHT22;10781;50.928;4.440;2022-08-21T15:32:02;29.60;58.00
21246;DHT22;10781;50.928;4.440;2022-08-21T15:34:29;29.40;59.40
21246;DHT22;10781;50.928;4.440;2022-08-21T15:36:56;29.40;58.70
21246;DHT22;10781;50.928;4.440;2022-08-21T15:39:22;29.50;58.50
21246;DHT22;10781;50.928;4.440;2022-08-21T15:41:48;29.50;57.80
21246;DHT22;10781;50.928;4.440;2022-08-21T15:44:14;29.50;57.60
21246;DHT22;10781;50.928;4.440;2022-08-21T15:46:40;29.50;58.50
21246;DHT22;10781;50.928;4.440;2022-08-21T15:49:06;29.40;58.10
21246;DHT22;10781;50.928;4.440;2022-08-21T15:51:33;29.10;59.30
21246;DHT22;10781;50.928;4.440;2022-08-21T15:53:59;29.00;59.50
21246;DHT22;10781;50.928;4.440;2022-08-21T15:56:33;28.70;60.00
21246;DHT22;10781;50.928;4.440;2022-08-21T15:59:04;28.60;60.60
21246;DHT22;10781;50.928;4.440;2022-08-21T16:01:30;28.60;60.10
21246;DHT22;10781;50.928;4.440;2022-08-21T16:03:56;28.60;59.40
21246;DHT22;10781;50.928;4.440;2022-08-21T16:06:22;28.60;60.00
21246;DHT22;10781;50.928;4.440;2022-08-21T16:08:48;28.50;60.90
21246;DHT22;10781;50.928;4.440;2022-08-21T16:11:14;28.50;60.80
21246;DHT22;10781;50.928;4.440;2022-08-21T16:13:43;28.50;61.70
21246;DHT22;10781;50.928;4.440;2022-08-21T16:16:11;28.60;62.40
21246;DHT22;10781;50.928;4.440;2022-08-21T16:18:38;28.50;62.40
21246;DHT22;10781;50.928;4.440;2022-08-21T16:21:05;28.50;62.10
21246;DHT22;10781;50.928;4.440;2022-08-21T16:23:32;28.40;61.80
21246;DHT22;10781;50.928;4.440;2022-08-21T16:26:01;28.40;62.00
21246;DHT22;10781;50.928;4.440;2022-08-21T16:28:27;28.20;62.90
21246;DHT22;10781;50.928;4.440;2022-08-21T16:30:54;28.10;63.10
21246;DHT22;10781;50.928;4.440;2022-08-21T16:33:26;28.10;63.10
21246;DHT22;10781;50.928;4.440;2022-08-21T16:35:55;28.10;62.90
21246;DHT22;10781;50.928;4.440;2022-08-21T16:38:21;28.10;63.90
21246;DHT22;10781;50.928;4.440;2022-08-21T16:40:47;27.90;64.20
21246;DHT22;10781;50.928;4.440;2022-08-21T16:43:13;27.90;63.90
21246;DHT22;10781;50.928;4.440;2022-08-21T16:45:39;27.80;64.00
21246;DHT22;10781;50.928;4.440;2022-08-21T16:48:05;27.70;64.30
21246;DHT22;10781;50.928;4.440;2022-08-21T16:50:35;27.70;64.60
21246;DHT22;10781;50.928;4.440;2022-08-21T16:53:02;27.60;64.80
21246;DHT22;10781;50.928;4.440;2022-08-21T16:55:28;27.40;65.70